Time;durP1;ratioP1;P1;durP2;ratioP2;P2;SDS_P1;SDS_P2;PMS_P1;PMS_P2;Temp;Humidity;BMP_temperature;BMP_pressure;BME280_temperature;BME280_humidity;BME280_pressure;Samples;Min_cycle;Max_cycle;Signal;HPM_P1;HPM_P2
2022/09/09 00:00:25;;;;;;;13.60;8.35;;;15.00;99.90;;;;;;5108626;28;20058;-79
2022/09/09 00:03:16;;;;;;;10.20;8.13;;;15.00;99.90;;;;;;5107732;28;20119;-79
2022/09/09 00:05:51;;;;;;;10.30;8.00;;;14.90;99.90;;;;;;5112145;28;20400;-80
2022/09/09 00:08:22;;;;;;;10.80;8.13;;;14.90;99.90;;;;;;5108166;28;20465;-81
2022/09/09 00:10:56;;;;;;;10.45;8.07;;;14.90;99.90;;;;;;5122819;27;20046;-82
2022/09/09 00:13:29;;;;;;;11.95;8.70;;;14.90;99.90;;;;;;5111374;28;20382;-81
2022/09/09 00:16:22;;;;;;;10.02;8.40;;;14.80;99.90;;;;;;5111757;28;20202;-80
2022/09/09 00:19:00;;;;;;;12.23;8.55;;;14.80;99.90;;;;;;5103973;28;20047;-80
2022/09/09 00:21:35;;;;;;;12.52;9.13;;;14.70;99.90;;;;;;5108547;28;20036;-80
2022/09/09 00:24:08;;;;;;;13.93;9.30;;;14.70;99.90;;;;;;5107723;28;20074;-81
2022/09/09 00:26:40;;;;;;;12.38;9.30;;;14.70;99.90;;;;;;5109475;28;20036;-81
2022/09/09 00:29:12;;;;;;;13.45;9.00;;;14.70;99.90;;;;;;5105970;28;20086;-80
2022/09/09 00:31:37;;;;;;;12.98;9.35;;;14.70;99.90;;;;;;5101523;28;20115;-81
2022/09/09 00:34:12;;;;;;;12.55;9.23;;;14.60;99.90;;;;;;5102101;28;20126;-81
2022/09/09 00:36:38;;;;;;;10.30;8.90;;;14.60;99.90;;;;;;5108708;28;20040;-81
2022/09/09 00:39:05;;;;;;;15.05;9.75;;;14.60;99.90;;;;;;5110379;28;20044;-81
2022/09/09 00:41:30;;;;;;;14.45;8.80;;;14.50;99.90;;;;;;5110771;27;20035;-81
2022/09/09 00:44:23;;;;;;;13.18;8.88;;;14.50;99.90;;;;;;5107298;28;20114;-80
2022/09/09 00:47:00;;;;;;;13.88;8.27;;;14.50;99.90;;;;;;5078699;28;20044;-80
2022/09/09 00:49:46;;;;;;;12.10;8.65;;;14.50;99.90;;;;;;5106652;28;20476;-80
2022/09/09 00:52:31;;;;;;;12.20;8.43;;;14.40;99.90;;;;;;5092617;28;20493;-80
2022/09/09 00:55:11;;;;;;;12.15;8.95;;;14.40;99.90;;;;;;5100116;28;20079;-80
2022/09/09 00:57:38;;;;;;;10.63;8.48;;;14.40;99.90;;;;;;5089253;28;20046;-81
2022/09/09 01:00:25;;;;;;;15.32;8.50;;;14.30;99.90;;;;;;5108640;28;20122;-79
2022/09/09 01:03:17;;;;;;;16.13;8.73;;;14.30;99.90;;;;;;5080519;28;20093;-80
2022/09/09 01:05:46;;;;;;;9.18;7.60;;;14.30;99.90;;;;;;5105632;28;20055;-80
2022/09/09 01:08:23;;;;;;;11.35;8.43;;;14.40;99.90;;;;;;5102015;28;20046;-81
2022/09/09 01:10:54;;;;;;;11.45;8.10;;;14.30;99.90;;;;;;5099032;28;20040;-81
2022/09/09 01:13:25;;;;;;;12.50;8.35;;;14.30;99.90;;;;;;5094982;28;20043;-80
2022/09/09 01:15:53;;;;;;;10.85;8.65;;;14.30;99.90;;;;;;5099153;28;20039;-81
2022/09/09 01:18:23;;;;;;;10.48;8.27;;;14.20;99.90;;;;;;5092099;28;20077;-82
2022/09/09 01:21:03;;;;;;;11.98;8.52;;;14.20;99.90;;;;;;5107400;28;20024;-81
2022/09/09 01:23:38;;;;;;;13.10;8.70;;;14.20;99.90;;;;;;5105517;28;20036;-82
2022/09/09 01:26:21;;;;;;;11.73;7.93;;;14.20;99.90;;;;;;5101996;28;20071;-81
2022/09/09 01:28:52;;;;;;;12.38;8.52;;;14.10;99.90;;;;;;5104543;28;20035;-84
2022/09/09 01:31:28;;;;;;;12.48;8.05;;;14.10;99.90;;;;;;5107750;28;20039;-81
2022/09/09 01:33:53;;;;;;;11.27;7.93;;;14.10;99.90;;;;;;5102771;28;20043;-81
2022/09/09 01:36:29;;;;;;;16.02;8.75;;;14.10;99.90;;;;;;5103281;28;20039;-83
2022/09/09 01:38:55;;;;;;;11.35;8.05;;;14.10;99.90;;;;;;5109883;28;20040;-81
2022/09/09 01:41:21;;;;;;;11.60;8.82;;;14.00;99.90;;;;;;5110383;28;20130;-81
2022/09/09 01:43:47;;;;;;;9.95;8.25;;;14.00;99.90;;;;;;5106894;28;20370;-83
2022/09/09 01:46:13;;;;;;;12.75;8.43;;;14.00;99.90;;;;;;5104523;28;20089;-82
2022/09/09 01:48:41;;;;;;;11.07;7.97;;;14.00;99.90;;;;;;5088517;28;20035;-82
2022/09/09 01:51:10;;;;;;;11.80;8.90;;;14.00;99.90;;;;;;5105057;28;20039;-82
2022/09/09 01:53:35;;;;;;;13.23;8.15;;;13.90;99.90;;;;;;5108369;28;20037;-82
2022/09/09 01:56:05;;;;;;;12.05;8.43;;;13.90;99.90;;;;;;5110447;28;20044;-82
2022/09/09 01:58:47;;;;;;;14.23;8.23;;;13.90;99.90;;;;;;5107179;28;20067;-83
2022/09/09 02:01:20;;;;;;;16.35;8.55;;;13.90;99.90;;;;;;5112119;28;20092;-83
2022/09/09 02:03:52;;;;;;;14.10;8.95;;;13.90;99.90;;;;;;5096818;28;20032;-82
2022/09/09 02:06:30;;;;;;;12.38;7.97;;;13.90;99.90;;;;;;5089004;28;20040;-81
2022/09/09 02:08:57;;;;;;;11.25;8.25;;;13.90;99.90;;;;;;5084599;28;20122;-82
2022/09/09 02:11:25;;;;;;;13.35;8.85;;;13.90;99.90;;;;;;5089559;28;20591;-83
2022/09/09 02:13:55;;;;;;;16.23;8.98;;;13.90;99.90;;;;;;5096759;28;20130;-83
2022/09/09 02:16:42;;;;;;;12.30;8.77;;;14.00;99.90;;;;;;5090697;28;20046;-82
2022/09/09 02:19:23;;;;;;;11.48;8.35;;;14.00;99.90;;;;;;5099189;28;20520;-83
2022/09/09 02:21:49;;;;;;;11.98;8.52;;;14.00;99.90;;;;;;5098247;28;20036;-83
2022/09/09 02:24:16;;;;;;;11.45;8.50;;;14.00;99.90;;;;;;5100081;28;20035;-84
2022/09/09 02:26:44;;;;;;;11.65;8.88;;;14.00;99.90;;;;;;5088394;28;20046;-82
2022/09/09 02:29:14;;;;;;;14.57;9.10;;;14.10;99.90;;;;;;5111078;28;20051;-83
2022/09/09 02:31:43;;;;;;;14.55;9.48;;;14.00;99.90;;;;;;5081357;28;20140;-84
2022/09/09 02:34:11;;;;;;;15.15;9.40;;;14.10;99.90;;;;;;5097865;28;20479;-85
2022/09/09 02:36:40;;;;;;;13.68;9.10;;;14.10;99.90;;;;;;5101314;28;20096;-84
2022/09/09 02:39:08;;;;;;;14.25;9.15;;;14.10;99.90;;;;;;5086311;28;20047;-84
2022/09/09 02:41:37;;;;;;;15.15;9.48;;;14.20;99.90;;;;;;5090706;28;20038;-83
2022/09/09 02:44:09;;;;;;;11.10;8.98;;;14.10;99.90;;;;;;5106874;28;20050;-83
2022/09/09 02:47:08;;;;;;;12.10;8.93;;;14.10;99.90;;;;;;5103180;28;20031;-83
2022/09/09 02:49:52;;;;;;;14.00;8.80;;;14.10;99.90;;;;;;5108531;28;20506;-83
2022/09/09 02:52:29;;;;;;;12.35;9.25;;;14.10;99.90;;;;;;5109538;28;20131;-83
2022/09/09 02:54:59;;;;;;;16.85;10.20;;;14.10;99.90;;;;;;5105963;28;20048;-83
2022/09/09 02:57:30;;;;;;;11.07;8.65;;;14.20;99.90;;;;;;5108329;28;20067;-83
2022/09/09 02:59:57;;;;;;;13.10;8.93;;;14.20;99.90;;;;;;5108549;28;20043;-84
2022/09/09 03:02:24;;;;;;;13.52;9.18;;;14.20;99.90;;;;;;5105716;28;20032;-83
2022/09/09 03:04:52;;;;;;;14.85;9.30;;;14.20;99.90;;;;;;5108613;28;20039;-80
2022/09/09 03:07:21;;;;;;;11.80;8.65;;;14.20;99.90;;;;;;5096184;28;20028;-83
2022/09/09 03:09:46;;;;;;;13.50;8.98;;;14.20;99.90;;;;;;5099869;28;20039;-83
2022/09/09 03:12:13;;;;;;;14.23;9.55;;;14.20;99.90;;;;;;5097258;28;20435;-83
2022/09/09 03:14:38;;;;;;;11.18;8.73;;;14.30;99.90;;;;;;5084126;28;20042;-83
2022/09/09 03:17:05;;;;;;;13.32;8.63;;;14.30;99.90;;;;;;5085867;28;20123;-82
2022/09/09 03:19:31;;;;;;;13.00;8.35;;;14.30;99.90;;;;;;5089948;28;20443;-82
2022/09/09 03:21:58;;;;;;;14.27;8.98;;;14.30;99.90;;;;;;5108726;28;20031;-83
2022/09/09 03:24:23;;;;;;;13.90;8.10;;;14.30;99.90;;;;;;5089016;28;20036;-82
2022/09/09 03:26:50;;;;;;;12.52;8.02;;;14.30;99.90;;;;;;5100260;28;20046;-84
2022/09/09 03:29:17;;;;;;;11.95;7.82;;;14.30;99.90;;;;;;5107980;28;20068;-83
2022/09/09 03:31:43;;;;;;;11.05;7.50;;;14.30;99.90;;;;;;5107353;28;20088;-83
2022/09/09 03:34:09;;;;;;;10.38;6.40;;;14.30;99.90;;;;;;5106857;28;20043;-82
2022/09/09 03:36:34;;;;;;;11.20;7.53;;;14.30;99.90;;;;;;5103506;28;20442;-83
2022/09/09 03:39:00;;;;;;;8.68;6.72;;;14.30;99.90;;;;;;5105764;28;20039;-82
2022/09/09 03:41:27;;;;;;;10.07;7.15;;;14.40;99.90;;;;;;5100504;28;20043;-83
2022/09/09 03:43:53;;;;;;;12.23;6.38;;;14.40;99.90;;;;;;5104478;28;20382;-83
2022/09/09 03:46:20;;;;;;;9.50;6.13;;;14.40;99.90;;;;;;5087064;28;20047;-82
2022/09/09 03:48:46;;;;;;;9.77;6.50;;;14.40;99.90;;;;;;5104606;28;20400;-83
2022/09/09 03:51:12;;;;;;;8.98;6.03;;;14.40;99.90;;;;;;5099377;28;20044;-83
2022/09/09 03:53:38;;;;;;;10.52;6.18;;;14.40;99.90;;;;;;5111912;28;20039;-84
2022/09/09 03:56:06;;;;;;;7.45;5.35;;;14.50;99.90;;;;;;5102643;28;20048;-83
2022/09/09 03:58:33;;;;;;;10.90;6.63;;;14.50;99.90;;;;;;5095400;28;20042;-83
2022/09/09 04:01:05;;;;;;;8.32;5.75;;;14.50;99.90;;;;;;5111563;28;20059;-81
2022/09/09 04:03:31;;;;;;;10.50;5.63;;;14.50;99.90;;;;;;5085063;28;20035;-82
2022/09/09 04:05:58;;;;;;;9.88;5.65;;;14.50;99.90;;;;;;5106722;28;20046;-81
2022/09/09 04:08:27;;;;;;;7.13;5.28;;;14.50;99.90;;;;;;5106425;28;20494;-82
2022/09/09 04:10:57;;;;;;;9.63;5.35;;;14.50;99.90;;;;;;5109439;28;20485;-82
2022/09/09 04:13:24;;;;;;;10.15;5.53;;;14.50;99.90;;;;;;5109423;28;20040;-81
2022/09/09 04:15:52;;;;;;;8.90;5.38;;;14.60;99.90;;;;;;5082755;28;20123;-82
2022/09/09 04:18:17;;;;;;;8.35;5.20;;;14.50;99.90;;;;;;5092557;28;20382;-81
2022/09/09 04:20:45;;;;;;;7.35;5.15;;;14.50;99.90;;;;;;5107299;28;20038;-82
2022/09/09 04:23:11;;;;;;;8.63;5.00;;;14.60;99.90;;;;;;5107102;28;20093;-82
2022/09/09 04:25:37;;;;;;;7.63;4.85;;;14.50;99.90;;;;;;5091563;28;20046;-83
2022/09/09 04:28:03;;;;;;;10.40;5.78;;;14.50;99.90;;;;;;5106533;28;20432;-81
2022/09/09 04:30:28;;;;;;;7.03;4.88;;;14.60;99.90;;;;;;5090104;28;20036;-82
2022/09/09 04:32:54;;;;;;;7.70;5.22;;;14.60;99.90;;;;;;5103888;28;20044;-81
2022/09/09 04:35:19;;;;;;;7.40;5.03;;;14.60;99.90;;;;;;5104342;28;20040;-82
2022/09/09 04:37:45;;;;;;;7.07;4.93;;;14.50;99.90;;;;;;5105440;28;20114;-82
2022/09/09 04:40:11;;;;;;;7.28;5.20;;;14.50;99.90;;;;;;5104454;28;20043;-82
2022/09/09 04:42:38;;;;;;;9.65;5.22;;;14.50;99.90;;;;;;5087722;28;20036;-81
2022/09/09 04:45:04;;;;;;;8.10;5.45;;;14.50;99.90;;;;;;5108993;28;20048;-82
2022/09/09 04:47:30;;;;;;;7.70;5.10;;;14.50;99.90;;;;;;5102725;28;20055;-81
2022/09/09 04:49:56;;;;;;;8.60;5.32;;;14.50;99.90;;;;;;5109657;28;20035;-81
2022/09/09 04:52:22;;;;;;;8.13;5.70;;;14.50;99.90;;;;;;5093537;28;20108;-81
2022/09/09 04:54:48;;;;;;;8.35;5.43;;;14.50;99.90;;;;;;5103598;28;20062;-81
2022/09/09 04:57:13;;;;;;;8.10;5.65;;;14.50;99.90;;;;;;5110502;28;20027;-80
2022/09/09 04:59:39;;;;;;;8.57;6.00;;;14.50;99.90;;;;;;5113372;28;20040;-80
2022/09/09 05:02:05;;;;;;;9.15;5.80;;;14.50;99.90;;;;;;5102621;28;20132;-80
2022/09/09 05:04:31;;;;;;;10.35;6.07;;;14.50;99.90;;;;;;5101926;28;20036;-81
2022/09/09 05:06:56;;;;;;;7.45;5.50;;;14.60;99.90;;;;;;5110840;28;20076;-80
2022/09/09 05:09:22;;;;;;;9.50;6.22;;;14.50;99.90;;;;;;5102821;28;20039;-81
2022/09/09 05:11:47;;;;;;;12.38;6.35;;;14.50;99.90;;;;;;5086883;28;20035;-81
2022/09/09 05:14:14;;;;;;;8.88;6.97;;;14.50;99.90;;;;;;5103276;28;20036;-80
2022/09/09 05:16:40;;;;;;;9.50;6.85;;;14.50;99.90;;;;;;5106623;28;20043;-81
2022/09/09 05:19:07;;;;;;;10.18;6.55;;;14.50;99.90;;;;;;5106891;28;20032;-80
2022/09/09 05:21:33;;;;;;;10.93;6.75;;;14.50;99.90;;;;;;5075940;28;20031;-80
2022/09/09 05:24:00;;;;;;;11.55;7.30;;;14.50;99.90;;;;;;5092977;28;20508;-80
2022/09/09 05:26:26;;;;;;;9.82;6.70;;;14.50;99.90;;;;;;5075883;28;20532;-80
2022/09/09 05:28:52;;;;;;;10.75;7.60;;;14.50;99.90;;;;;;5092625;28;20055;-80
2022/09/09 05:31:18;;;;;;;9.60;6.75;;;14.50;99.90;;;;;;5093608;28;20048;-80
2022/09/09 05:33:46;;;;;;;10.43;7.10;;;14.50;99.90;;;;;;5100076;28;20035;-80
2022/09/09 05:36:22;;;;;;;9.95;7.22;;;14.50;99.90;;;;;;5086089;28;20046;-81
2022/09/09 05:38:48;;;;;;;12.60;7.20;;;14.50;99.90;;;;;;5101453;28;20046;-80
2022/09/09 05:41:17;;;;;;;10.88;7.68;;;14.50;99.90;;;;;;5108618;28;20036;-81
2022/09/09 05:43:44;;;;;;;11.60;8.18;;;14.50;99.90;;;;;;5106857;28;20031;-82
2022/09/09 05:46:12;;;;;;;10.40;8.27;;;14.50;99.90;;;;;;5099287;28;20069;-82
2022/09/09 05:48:42;;;;;;;12.68;8.07;;;14.50;99.90;;;;;;5102974;28;20072;-81
2022/09/09 05:51:17;;;;;;;12.73;8.52;;;14.50;99.90;;;;;;5098754;28;20032;-81
2022/09/09 05:53:44;;;;;;;11.98;8.70;;;14.50;99.90;;;;;;5097429;28;20134;-82
2022/09/09 05:56:12;;;;;;;13.20;8.50;;;14.50;99.90;;;;;;5084343;28;20039;-81
2022/09/09 05:58:38;;;;;;;11.93;8.35;;;14.50;99.90;;;;;;5085967;28;20042;-82
2022/09/09 06:01:13;;;;;;;12.35;8.57;;;14.60;99.90;;;;;;5110140;28;20031;-81
2022/09/09 06:03:41;;;;;;;11.93;8.73;;;14.60;99.90;;;;;;5089737;28;20051;-81
2022/09/09 06:06:09;;;;;;;14.15;9.13;;;14.60;99.90;;;;;;5090816;28;20051;-80
2022/09/09 06:08:39;;;;;;;13.13;8.95;;;14.60;99.90;;;;;;5074482;28;20047;-81
2022/09/09 06:11:08;;;;;;;12.57;8.90;;;14.60;99.90;;;;;;5100716;28;20039;-81
2022/09/09 06:13:34;;;;;;;12.38;8.13;;;14.60;99.90;;;;;;5096767;28;20406;-81
2022/09/09 06:16:00;;;;;;;12.05;8.75;;;14.60;99.90;;;;;;5091534;28;20056;-81
2022/09/09 06:18:26;;;;;;;13.07;8.55;;;14.60;99.90;;;;;;5074823;28;20039;-82
2022/09/09 06:21:04;;;;;;;12.23;8.20;;;14.60;99.90;;;;;;5091387;28;20036;-81
2022/09/09 06:23:30;;;;;;;11.88;8.25;;;14.60;99.90;;;;;;5092436;28;20406;-80
2022/09/09 06:26:14;;;;;;;11.07;8.88;;;14.70;99.90;;;;;;5092030;28;20040;-81
2022/09/09 06:28:42;;;;;;;10.95;8.98;;;14.70;99.90;;;;;;5075145;28;20114;-81
2022/09/09 06:31:10;;;;;;;11.25;8.27;;;14.80;99.90;;;;;;5092868;28;20052;-79
2022/09/09 06:33:40;;;;;;;11.23;8.48;;;14.70;99.90;;;;;;5091040;28;20040;-80
2022/09/09 06:36:17;;;;;;;10.18;7.88;;;14.80;99.90;;;;;;5074188;28;20477;-81
2022/09/09 06:38:44;;;;;;;10.52;8.13;;;14.70;99.90;;;;;;5091889;28;20046;-82
2022/09/09 06:41:12;;;;;;;10.27;8.10;;;14.80;99.90;;;;;;5090856;28;20032;-81
2022/09/09 06:43:38;;;;;;;9.80;7.97;;;14.90;99.90;;;;;;5093800;28;20398;-81
2022/09/09 06:46:05;;;;;;;13.52;8.68;;;14.90;99.90;;;;;;5091950;28;20120;-82
2022/09/09 06:48:31;;;;;;;10.38;7.82;;;14.90;99.90;;;;;;5091865;28;20040;-81
2022/09/09 06:51:16;;;;;;;10.82;8.02;;;15.00;99.90;;;;;;5091266;28;20065;-81
2022/09/09 06:53:44;;;;;;;8.75;7.00;;;15.00;99.90;;;;;;5092254;28;20456;-81
2022/09/09 06:56:09;;;;;;;10.60;7.18;;;15.00;99.90;;;;;;5074849;28;20051;-81
2022/09/09 06:58:43;;;;;;;10.40;7.85;;;15.00;99.90;;;;;;5096448;28;20036;-81
2022/09/09 07:01:12;;;;;;;11.07;7.38;;;15.10;99.90;;;;;;5095496;28;20040;-81
2022/09/09 07:03:38;;;;;;;10.65;7.85;;;15.00;99.90;;;;;;5097789;28;20397;-81
2022/09/09 07:06:05;;;;;;;11.25;7.40;;;15.10;99.90;;;;;;5095422;28;20078;-79
2022/09/09 07:08:31;;;;;;;9.60;6.95;;;15.10;99.90;;;;;;5095300;28;20043;-80
2022/09/09 07:11:04;;;;;;;14.60;7.28;;;15.20;99.90;;;;;;5086225;28;20035;-80
2022/09/09 07:13:31;;;;;;;9.02;7.00;;;15.10;99.90;;;;;;5100185;28;20044;-79
2022/09/09 07:16:10;;;;;;;11.38;7.32;;;15.20;99.90;;;;;;5096205;28;20119;-79
2022/09/09 07:18:36;;;;;;;10.20;7.25;;;15.20;99.90;;;;;;5095118;28;20093;-80
2022/09/09 07:21:03;;;;;;;9.88;7.68;;;15.30;99.90;;;;;;5096254;28;20478;-79
2022/09/09 07:23:29;;;;;;;11.65;7.50;;;15.30;99.90;;;;;;5097322;28;20036;-79
2022/09/09 07:25:56;;;;;;;10.98;7.20;;;15.30;99.90;;;;;;5095998;28;20082;-79
2022/09/09 07:28:22;;;;;;;11.13;7.50;;;15.40;99.90;;;;;;5095724;28;20051;-79
2022/09/09 07:31:02;;;;;;;8.23;6.85;;;15.40;99.90;;;;;;5106980;28;20433;-80
2022/09/09 07:33:30;;;;;;;9.52;7.18;;;15.50;99.90;;;;;;5094390;28;20043;-79
2022/09/09 07:36:06;;;;;;;9.15;6.85;;;15.50;99.90;;;;;;5094763;28;20067;-79
2022/09/09 07:38:37;;;;;;;10.15;7.40;;;15.60;99.90;;;;;;5095725;28;20064;-79
2022/09/09 07:41:11;;;;;;;12.93;6.47;;;15.70;99.90;;;;;;5109737;28;20119;-79
2022/09/09 07:43:44;;;;;;;9.27;6.57;;;15.70;99.90;;;;;;5109084;28;20073;-80
2022/09/09 07:46:11;;;;;;;10.65;6.72;;;15.80;99.90;;;;;;5092898;28;20054;-79
2022/09/09 07:48:38;;;;;;;8.75;6.15;;;15.80;99.90;;;;;;5113961;28;20040;-79
2022/09/09 07:51:06;;;;;;;8.15;6.30;;;15.90;99.90;;;;;;5106394;28;20565;-79
2022/09/09 07:53:31;;;;;;;8.93;6.40;;;16.00;99.90;;;;;;5112340;28;20051;-79
2022/09/09 07:56:09;;;;;;;8.95;6.65;;;16.10;99.90;;;;;;5095587;28;20047;-79
2022/09/09 07:58:37;;;;;;;9.55;6.53;;;16.20;99.90;;;;;;5093496;28;20032;-80
2022/09/09 08:01:08;;;;;;;10.40;6.18;;;16.20;99.90;;;;;;5098611;28;20374;-78
2022/09/09 08:03:33;;;;;;;9.02;5.90;;;16.30;99.90;;;;;;5103851;28;20044;-79
2022/09/09 08:06:07;;;;;;;9.27;5.75;;;16.40;99.90;;;;;;5110685;28;20093;-79
2022/09/09 08:08:34;;;;;;;7.30;6.10;;;16.40;99.90;;;;;;5112573;28;20506;-78
2022/09/09 08:11:27;;;;;;;7.35;5.47;;;16.50;99.90;;;;;;5104693;28;20049;-78
2022/09/09 08:13:53;;;;;;;7.55;5.18;;;16.50;99.90;;;;;;5097260;28;20051;-78
2022/09/09 08:16:25;;;;;;;6.53;5.35;;;16.60;99.90;;;;;;5096263;28;20046;-78
2022/09/09 08:18:51;;;;;;;8.52;5.10;;;16.60;99.90;;;;;;5092961;28;20036;-78
2022/09/09 08:21:23;;;;;;;11.88;6.05;;;16.70;99.90;;;;;;5098072;28;20040;-79
2022/09/09 08:23:52;;;;;;;10.82;5.55;;;16.60;99.90;;;;;;5103074;28;20043;-78
2022/09/09 08:26:22;;;;;;;8.70;5.32;;;16.80;99.90;;;;;;5098333;28;20042;-79
2022/09/09 08:28:49;;;;;;;8.98;5.72;;;17.00;99.90;;;;;;5108707;28;20043;-78
2022/09/09 08:31:21;;;;;;;9.73;5.22;;;17.10;99.90;;;;;;5108996;28;20052;-78
2022/09/09 08:33:47;;;;;;;8.40;5.78;;;17.20;99.90;;;;;;5107273;28;20039;-78
2022/09/09 08:36:15;;;;;;;7.65;4.68;;;17.30;99.90;;;;;;5105547;28;20053;-78
2022/09/09 08:38:47;;;;;;;9.63;5.10;;;17.30;99.90;;;;;;5107554;28;20039;-79
2022/09/09 08:41:53;;;;;;;8.43;5.13;;;17.30;99.90;;;;;;5096322;28;20039;-79
2022/09/09 08:44:43;;;;;;;8.98;4.75;;;17.30;99.90;;;;;;5110029;28;20417;-78
2022/09/09 08:47:29;;;;;;;10.77;4.90;;;17.40;99.90;;;;;;5107361;28;20086;-80
2022/09/09 08:50:17;;;;;;;7.45;4.78;;;17.30;99.90;;;;;;5096163;28;20048;-79
2022/09/09 08:53:03;;;;;;;7.60;4.78;;;17.30;99.90;;;;;;5107915;28;20122;-78
2022/09/09 08:55:41;;;;;;;6.93;4.68;;;17.40;99.90;;;;;;5109897;28;20379;-79
2022/09/09 08:58:32;;;;;;;6.25;5.03;;;17.50;99.90;;;;;;5089134;28;20036;-77
2022/09/09 09:01:22;;;;;;;7.97;4.80;;;17.70;99.90;;;;;;5105849;28;20047;-78
2022/09/09 09:04:01;;;;;;;8.15;5.05;;;17.80;99.90;;;;;;5110491;28;20537;-79
2022/09/09 09:06:30;;;;;;;9.10;4.80;;;18.00;99.90;;;;;;5103807;28;20501;-78
2022/09/09 09:09:17;;;;;;;9.15;5.07;;;18.10;99.90;;;;;;5092888;28;20040;-78
2022/09/09 09:11:51;;;;;;;8.85;4.47;;;18.20;99.90;;;;;;5101419;28;20043;-78
2022/09/09 09:14:27;;;;;;;9.00;4.75;;;18.30;99.90;;;;;;5088610;28;20040;-79
2022/09/09 09:17:14;;;;;;;10.68;5.07;;;18.40;99.90;;;;;;5102969;28;20417;-78
2022/09/09 09:19:43;;;;;;;6.78;4.75;;;18.50;99.90;;;;;;5101900;28;20042;-79
2022/09/09 09:22:21;;;;;;;6.15;4.55;;;18.60;99.90;;;;;;5107155;28;20035;-78
2022/09/09 09:25:04;;;;;;;5.75;4.35;;;18.70;99.90;;;;;;5077630;28;20062;-78
2022/09/09 09:27:47;;;;;;;10.05;4.57;;;18.90;99.90;;;;;;5096874;28;20036;-78
2022/09/09 09:30:17;;;;;;;7.47;3.83;;;19.00;99.90;;;;;;5080557;28;20042;-78
2022/09/09 09:33:08;;;;;;;10.25;4.00;;;19.00;99.90;;;;;;5096064;28;20393;-78
2022/09/09 09:35:33;;;;;;;6.75;3.53;;;18.90;99.90;;;;;;5102823;28;20621;-77
2022/09/09 09:38:00;;;;;;;9.25;3.63;;;18.80;99.90;;;;;;5101275;28;20036;-78
2022/09/09 09:40:26;;;;;;;10.57;3.70;;;18.80;99.90;;;;;;5091818;28;20027;-77
2022/09/09 09:42:59;;;;;;;8.57;3.38;;;18.70;99.90;;;;;;5097173;28;20186;-78
2022/09/09 09:45:33;;;;;;;12.13;3.80;;;18.70;99.90;;;;;;5097391;28;20401;-78
2022/09/09 09:48:08;;;;;;;9.45;3.65;;;18.70;99.90;;;;;;5108933;28;20122;-78
2022/09/09 09:50:34;;;;;;;9.02;3.28;;;18.80;99.90;;;;;;5097513;28;20051;-79
2022/09/09 09:53:04;;;;;;;6.68;3.60;;;18.80;99.90;;;;;;5085748;28;20273;-77
2022/09/09 09:55:33;;;;;;;6.93;3.38;;;18.70;99.90;;;;;;5093880;28;20060;-77
2022/09/09 09:58:04;;;;;;;7.25;3.20;;;18.70;99.90;;;;;;5103840;28;20159;-78
2022/09/09 10:00:29;;;;;;;7.13;3.00;;;18.70;99.90;;;;;;5104325;28;20070;-78
2022/09/09 10:02:56;;;;;;;8.38;3.20;;;18.70;99.90;;;;;;5087385;28;20616;-77
2022/09/09 10:05:45;;;;;;;9.07;2.90;;;18.70;99.90;;;;;;5110514;28;20047;-78
2022/09/09 10:08:19;;;;;;;9.85;3.30;;;18.80;99.90;;;;;;5108072;28;20053;-78
2022/09/09 10:10:56;;;;;;;6.65;3.03;;;18.90;99.90;;;;;;5099939;28;20057;-77
2022/09/09 10:13:32;;;;;;;6.63;3.05;;;19.00;99.90;;;;;;5109872;28;20619;-77
2022/09/09 10:16:34;;;;;;;8.30;2.97;;;19.00;99.90;;;;;;5098327;28;20147;-77
2022/09/09 10:19:35;;;;;;;8.15;3.05;;;18.90;99.90;;;;;;5091553;28;20086;-77
2022/09/09 10:22:24;;;;;;;6.00;2.42;;;18.90;99.90;;;;;;5089957;28;20440;-77
2022/09/09 10:25:28;;;;;;;8.38;2.83;;;18.80;99.90;;;;;;5096573;28;20058;-77
2022/09/09 10:28:23;;;;;;;8.25;2.35;;;18.90;99.90;;;;;;5073593;28;20513;-78
2022/09/09 10:30:51;;;;;;;7.47;2.30;;;19.00;99.90;;;;;;5085938;28;20040;-77
2022/09/09 10:33:32;;;;;;;6.75;2.10;;;19.10;99.90;;;;;;5099737;28;20053;-77
2022/09/09 10:36:23;;;;;;;6.78;2.22;;;19.30;99.90;;;;;;5104198;28;20509;-77
2022/09/09 10:39:11;;;;;;;6.97;1.63;;;19.50;99.90;;;;;;5109690;28;20083;-77
2022/09/09 10:42:08;;;;;;;6.55;1.77;;;19.80;99.90;;;;;;5100360;27;20061;-78
2022/09/09 10:44:58;;;;;;;6.57;1.70;;;19.90;99.90;;;;;;5104382;28;20058;-77
2022/09/09 10:47:49;;;;;;;7.38;1.70;;;20.00;99.90;;;;;;5102401;28;20036;-78
2022/09/09 10:50:40;;;;;;;5.15;1.80;;;20.10;99.90;;;;;;5090513;28;20058;-76
2022/09/09 10:53:36;;;;;;;6.03;1.85;;;20.10;99.90;;;;;;5097149;28;20126;-77
2022/09/09 10:56:23;;;;;;;6.90;1.80;;;19.90;99.90;;;;;;5080204;28;20493;-76
2022/09/09 10:59:01;;;;;;;6.40;1.88;;;19.90;99.90;;;;;;5107375;28;20133;-78
2022/09/09 11:01:33;;;;;;;6.20;1.80;;;20.00;99.90;;;;;;5100858;28;20039;-77
2022/09/09 11:04:10;;;;;;;6.35;1.98;;;19.90;99.90;;;;;;5106893;28;20042;-77
2022/09/09 11:06:44;;;;;;;5.35;1.60;;;19.90;99.90;;;;;;5108413;28;20036;-76
2022/09/09 11:09:17;;;;;;;6.22;1.65;;;19.90;99.90;;;;;;5090118;28;20451;-77
2022/09/09 11:11:54;;;;;;;5.30;1.77;;;20.10;99.90;;;;;;5101584;28;20562;-76
2022/09/09 11:15:06;;;;;;;6.38;1.65;;;20.40;99.90;;;;;;5100853;28;20042;-76
2022/09/09 11:17:49;;;;;;;4.63;1.60;;;20.70;99.90;;;;;;5073412;28;20056;-76
2022/09/09 11:20:15;;;;;;;5.28;1.48;;;21.10;99.90;;;;;;5102158;28;20047;-75
2022/09/09 11:22:52;;;;;;;7.40;1.80;;;21.10;99.90;;;;;;5103043;28;20035;-77
2022/09/09 11:25:19;;;;;;;5.80;1.83;;;21.10;99.90;;;;;;5101322;28;20058;-75
2022/09/09 11:28:15;;;;;;;7.00;2.08;;;21.10;99.90;;;;;;5085847;28;20038;-77
2022/09/09 11:30:52;;;;;;;5.13;1.52;;;21.20;99.90;;;;;;5084542;28;20086;-77
2022/09/09 11:33:44;;;;;;;5.57;1.73;;;21.40;99.90;;;;;;5084460;28;20043;-76
2022/09/09 11:36:25;;;;;;;5.55;1.70;;;21.50;99.90;;;;;;5089520;28;20672;-77
2022/09/09 11:38:52;;;;;;;6.28;2.20;;;21.20;99.90;;;;;;5099904;28;20036;-77
2022/09/09 11:41:23;;;;;;;4.38;1.55;;;21.10;99.90;;;;;;5099715;28;20048;-76
2022/09/09 11:43:51;;;;;;;4.53;1.40;;;20.90;99.90;;;;;;5091538;28;20047;-76
2022/09/09 11:46:33;;;;;;;4.05;1.65;;;20.80;99.90;;;;;;5095691;28;20036;-77
2022/09/09 11:49:05;;;;;;;5.80;1.70;;;20.60;99.90;;;;;;5104324;28;20044;-76
2022/09/09 11:51:32;;;;;;;8.98;1.60;;;20.60;99.90;;;;;;5106366;28;20063;-76
2022/09/09 11:54:04;;;;;;;9.07;1.70;;;20.90;99.90;;;;;;5112344;28;20070;-77
2022/09/09 11:56:44;;;;;;;5.90;1.67;;;21.40;99.90;;;;;;5100218;28;20563;-77
2022/09/09 11:59:25;;;;;;;4.72;1.55;;;21.40;99.90;;;;;;5090330;28;20036;-77
2022/09/09 12:02:17;;;;;;;8.30;1.88;;;21.20;99.90;;;;;;5095308;28;20032;-77
2022/09/09 12:05:00;;;;;;;7.40;1.77;;;21.10;99.90;;;;;;5082716;28;20080;-77
2022/09/09 12:07:45;;;;;;;7.90;2.07;;;20.90;99.90;;;;;;5104942;28;20043;-78
2022/09/09 12:10:31;;;;;;;6.00;1.50;;;20.80;99.90;;;;;;5108010;28;20036;-77
2022/09/09 12:13:27;;;;;;;7.35;2.10;;;21.00;99.90;;;;;;5108764;28;20068;-77
2022/09/09 12:15:55;;;;;;;4.25;1.63;;;21.20;99.90;;;;;;5105233;28;20431;-77
2022/09/09 12:18:23;;;;;;;6.65;1.60;;;21.30;99.90;;;;;;5099228;28;20047;-77
2022/09/09 12:21:07;;;;;;;6.00;1.67;;;21.30;99.90;;;;;;5089846;28;20044;-78
2022/09/09 12:23:38;;;;;;;5.03;1.90;;;21.20;99.90;;;;;;5105591;28;20110;-77
2022/09/09 12:26:35;;;;;;;5.25;1.60;;;21.00;99.90;;;;;;5106956;28;20108;-76
2022/09/09 12:29:13;;;;;;;5.93;1.55;;;20.80;99.90;;;;;;5098498;28;20043;-77
2022/09/09 12:31:46;;;;;;;3.53;1.20;;;20.80;99.90;;;;;;5104713;28;20047;-77
2022/09/09 12:34:35;;;;;;;5.82;1.30;;;21.00;99.90;;;;;;5103795;28;20684;-77
2022/09/09 12:37:27;;;;;;;7.88;1.52;;;21.20;99.90;;;;;;5106671;28;20074;-78
2022/09/09 12:39:59;;;;;;;5.80;1.50;;;21.30;99.90;;;;;;5100377;28;20064;-76
2022/09/09 12:42:25;;;;;;;4.28;1.38;;;21.40;99.90;;;;;;5101009;28;20038;-77
2022/09/09 12:44:55;;;;;;;5.05;1.50;;;21.40;99.90;;;;;;5092524;28;20040;-78
2022/09/09 12:47:40;;;;;;;7.35;1.55;;;21.60;99.90;;;;;;5100334;28;20130;-76
2022/09/09 12:50:20;;;;;;;4.43;1.27;;;22.10;99.90;;;;;;5100926;28;20043;-77
2022/09/09 12:52:47;;;;;;;5.15;1.10;;;22.30;99.90;;;;;;5102613;28;20067;-77
2022/09/09 12:55:18;;;;;;;4.75;1.50;;;22.20;99.90;;;;;;5101772;28;20039;-78
2022/09/09 12:57:45;;;;;;;6.25;1.98;;;22.20;99.90;;;;;;5104588;28;20245;-77
2022/09/09 13:00:22;;;;;;;6.28;1.60;;;22.10;99.90;;;;;;5107011;28;20038;-77
2022/09/09 13:02:50;;;;;;;4.57;1.50;;;22.20;99.90;;;;;;5086132;28;20085;-77
2022/09/09 13:05:20;;;;;;;5.80;1.38;;;22.10;99.90;;;;;;5108115;28;20043;-77
2022/09/09 13:07:46;;;;;;;7.57;1.60;;;22.10;99.90;;;;;;5101856;28;20106;-78
2022/09/09 13:10:14;;;;;;;5.60;1.35;;;22.30;99.90;;;;;;5095371;28;20084;-78
2022/09/09 13:12:42;;;;;;;6.22;1.50;;;22.20;99.90;;;;;;5104291;28;20039;-75